Time;durP1;ratioP1;P1;durP2;ratioP2;P2;SDS_P1;SDS_P2;PMS_P1;PMS_P2;Temp;Humidity;BMP_temperature;BMP_pressure;BME280_temperature;BME280_humidity;BME280_pressure;Samples;Min_cycle;Max_cycle;Signal;HPM_P1;HPM_P2
2022/10/15 00:01:24;;;;;;;28.73;21.60;;;;;;;12.09;100.00;100524.06;4996812;28;20172;-45
2022/10/15 00:03:50;;;;;;;29.15;21.13;;;;;;;12.09;100.00;100514.22;4982730;28;20644;-44
2022/10/15 00:06:18;;;;;;;24.88;19.67;;;;;;;12.10;100.00;100526.69;4999496;28;20177;-45
2022/10/15 00:08:45;;;;;;;28.35;20.17;;;;;;;12.13;100.00;100521.19;4999433;28;20781;-46
2022/10/15 00:11:17;;;;;;;26.92;20.75;;;;;;;12.11;100.00;100516.81;4992546;28;20181;-46
2022/10/15 00:13:44;;;;;;;23.23;20.10;;;;;;;12.14;100.00;100514.00;4997335;28;20213;-44
2022/10/15 00:16:15;;;;;;;27.63;21.95;;;;;;;12.13;100.00;100515.81;4999667;28;20184;-46
2022/10/15 00:18:42;;;;;;;26.50;21.55;;;;;;;12.13;100.00;100507.75;4988884;28;20346;-46
2022/10/15 00:21:09;;;;;;;29.63;21.73;;;;;;;12.14;100.00;100514.00;4996251;28;20177;-46
2022/10/15 00:23:35;;;;;;;30.40;21.77;;;;;;;12.19;100.00;100511.06;4993369;28;20196;-46
2022/10/15 00:26:07;;;;;;;29.38;21.88;;;;;;;12.15;100.00;100511.22;4992023;28;20655;-44
2022/10/15 00:28:32;;;;;;;29.05;21.73;;;;;;;12.14;100.00;100501.44;4995847;28;20173;-46
2022/10/15 00:31:04;;;;;;;29.95;23.05;;;;;;;12.15;100.00;100507.66;4988009;28;20212;-46
2022/10/15 00:33:29;;;;;;;31.52;23.40;;;;;;;12.16;100.00;100510.28;4991982;28;20712;-45
2022/10/15 00:36:04;;;;;;;29.25;22.42;;;;;;;12.22;100.00;100508.22;4983174;28;20188;-45
2022/10/15 00:38:30;;;;;;;30.85;22.13;;;;;;;12.25;100.00;100508.09;4968626;28;20192;-46
2022/10/15 00:40:56;;;;;;;33.80;23.58;;;;;;;12.21;100.00;100502.00;4987529;28;20200;-45
2022/10/15 00:43:38;;;;;;;33.03;23.92;;;;;;;12.22;100.00;100500.16;4998857;28;20209;-46
2022/10/15 00:46:11;;;;;;;32.22;22.83;;;;;;;12.25;100.00;100497.34;4997956;28;20222;-45
2022/10/15 00:48:37;;;;;;;37.97;25.17;;;;;;;12.24;100.00;100495.59;4994586;28;20268;-46
2022/10/15 00:51:04;;;;;;;31.85;23.10;;;;;;;12.26;100.00;100507.13;4992657;28;20184;-47
2022/10/15 00:53:30;;;;;;;37.00;25.70;;;;;;;12.24;100.00;100492.91;4981807;28;20232;-47
2022/10/15 00:55:56;;;;;;;35.28;25.75;;;;;;;12.26;100.00;100499.94;4972382;28;20794;-45
2022/10/15 00:58:27;;;;;;;40.22;26.38;;;;;;;12.26;100.00;100491.88;4976854;28;20742;-47
2022/10/15 01:00:54;;;;;;;42.97;27.20;;;;;;;12.24;100.00;100496.44;4997055;28;20191;-47
2022/10/15 01:03:21;;;;;;;39.45;26.10;;;;;;;12.28;100.00;100492.66;4991945;28;20208;-48
2022/10/15 01:06:08;;;;;;;36.95;26.50;;;;;;;12.27;100.00;100482.88;5000067;28;20187;-46
2022/10/15 01:08:34;;;;;;;39.40;27.45;;;;;;;12.28;100.00;100481.91;4995956;28;20593;-47
2022/10/15 01:11:38;;;;;;;34.85;25.42;;;;;;;12.27;100.00;100485.56;5008931;28;20185;-44
2022/10/15 01:14:19;;;;;;;34.40;25.42;;;;;;;12.29;100.00;100481.00;5011349;28;20230;-44
2022/10/15 01:16:49;;;;;;;41.88;25.35;;;;;;;12.29;100.00;100480.13;5011333;28;20484;-47
2022/10/15 01:19:31;;;;;;;34.83;25.73;;;;;;;12.30;100.00;100468.41;5011538;28;20176;-43
2022/10/15 01:22:09;;;;;;;35.63;24.95;;;;;;;12.31;100.00;100468.34;5004880;28;20263;-41
2022/10/15 01:24:47;;;;;;;34.35;25.75;;;;;;;12.30;100.00;100471.97;5000812;28;20188;-44
2022/10/15 01:27:41;;;;;;;38.20;27.35;;;;;;;12.30;100.00;100482.72;4996670;28;20188;-43
2022/10/15 01:30:38;;;;;;;35.42;26.23;;;;;;;12.30;100.00;100471.97;4988317;28;20725;-44
2022/10/15 01:33:37;;;;;;;35.92;26.05;;;;;;;12.34;100.00;100470.88;4994922;28;20216;-44
2022/10/15 01:36:16;;;;;;;34.70;25.73;;;;;;;12.35;100.00;100475.31;4990978;28;20280;-43
2022/10/15 01:39:10;;;;;;;36.20;26.17;;;;;;;12.34;100.00;100468.19;4980664;28;20193;-41
2022/10/15 01:41:48;;;;;;;35.35;25.27;;;;;;;12.36;100.00;100462.75;4990615;28;20288;-43
2022/10/15 01:44:22;;;;;;;37.00;25.75;;;;;;;12.36;100.00;100470.81;4978752;28;20248;-41
2022/10/15 01:47:11;;;;;;;36.88;26.30;;;;;;;12.38;100.00;100470.72;4998704;28;20277;-43
2022/10/15 01:49:42;;;;;;;38.70;26.58;;;;;;;12.39;100.00;100467.06;4998125;28;20188;-42
2022/10/15 01:52:12;;;;;;;37.22;26.40;;;;;;;12.38;100.00;100465.34;4991043;28;20289;-42
2022/10/15 01:54:39;;;;;;;42.03;26.85;;;;;;;12.38;100.00;100466.22;4999409;28;20196;-41
2022/10/15 01:57:06;;;;;;;41.13;27.73;;;;;;;12.39;100.00;100467.94;4985975;28;20185;-43
2022/10/15 01:59:33;;;;;;;39.50;27.48;;;;;;;12.40;100.00;100464.31;4985284;28;20655;-42
2022/10/15 02:01:59;;;;;;;39.70;26.88;;;;;;;12.41;100.00;100466.03;5000420;28;20764;-42
2022/10/15 02:04:30;;;;;;;40.50;28.42;;;;;;;12.42;100.00;100458.84;4988073;28;20217;-41
2022/10/15 02:07:28;;;;;;;44.58;28.60;;;;;;;12.44;100.00;100462.31;4994748;28;20181;-42
2022/10/15 02:10:00;;;;;;;45.35;29.38;;;;;;;12.42;100.00;100467.81;4997949;28;20209;-43
2022/10/15 02:12:37;;;;;;;47.17;29.77;;;;;;;12.42;100.00;100454.38;4995089;28;20275;-42
2022/10/15 02:15:06;;;;;;;46.35;29.90;;;;;;;12.43;100.00;100456.09;4995260;28;20193;-42
2022/10/15 02:18:12;;;;;;;45.78;30.08;;;;;;;12.43;100.00;100452.53;4982303;28;20319;-43
2022/10/15 02:20:58;;;;;;;44.55;29.17;;;;;;;12.39;100.00;100449.13;4973628;28;20197;-41
2022/10/15 02:23:26;;;;;;;50.28;31.15;;;;;;;12.39;100.00;100450.97;4989644;28;20259;-40
2022/10/15 02:25:58;;;;;;;49.05;31.00;;;;;;;12.36;100.00;100446.63;4991650;28;20174;-41
2022/10/15 02:28:27;;;;;;;51.88;32.25;;;;;;;12.35;100.00;100443.06;4997283;28;20201;-41
2022/10/15 02:30:55;;;;;;;38.22;26.98;;;;;;;12.35;100.00;100448.44;4991757;28;20275;-45
2022/10/15 02:33:25;;;;;;;43.88;29.63;;;;;;;12.30;100.00;100447.78;4987969;28;20221;-40
2022/10/15 02:35:51;;;;;;;48.95;30.80;;;;;;;12.29;100.00;100446.06;4995080;28;20273;-41
2022/10/15 02:38:20;;;;;;;45.90;30.23;;;;;;;12.28;100.00;100447.00;5003269;28;20196;-41
2022/10/15 02:40:47;;;;;;;48.90;32.45;;;;;;;12.27;100.00;100441.72;4976647;28;20200;-44
2022/10/15 02:43:17;;;;;;;46.05;30.27;;;;;;;12.29;100.00;100440.69;4992863;28;20212;-40
2022/10/15 02:45:43;;;;;;;53.53;34.15;;;;;;;12.26;100.00;100440.84;4986065;28;20630;-44
2022/10/15 02:48:08;;;;;;;51.85;34.00;;;;;;;12.22;100.00;100443.75;4976578;28;20313;-41
2022/10/15 02:50:34;;;;;;;53.70;35.13;;;;;;;12.16;100.00;100436.91;4995667;28;20238;-44
2022/10/15 02:52:59;;;;;;;57.80;35.55;;;;;;;12.19;100.00;100443.94;5001309;28;20220;-43
2022/10/15 02:55:25;;;;;;;59.65;36.90;;;;;;;12.18;100.00;100443.06;4993584;28;20192;-42
2022/10/15 02:57:51;;;;;;;58.47;37.47;;;;;;;12.15;100.00;100443.22;4996355;28;20196;-40
2022/10/15 03:00:17;;;;;;;61.35;37.58;;;;;;;12.19;100.00;100436.75;4977454;28;20195;-44
2022/10/15 03:02:44;;;;;;;57.60;36.58;;;;;;;12.20;100.00;100440.28;4984083;28;20217;-41
2022/10/15 03:05:10;;;;;;;63.75;38.47;;;;;;;12.20;100.00;100443.88;4974339;28;20200;-42
2022/10/15 03:07:36;;;;;;;61.30;37.17;;;;;;;12.16;100.00;100437.78;4991304;28;20185;-42
2022/10/15 03:10:03;;;;;;;61.50;38.17;;;;;;;12.16;100.00;100445.81;4992713;28;20643;-43
2022/10/15 03:12:28;;;;;;;64.15;38.70;;;;;;;12.15;100.00;100440.53;5001778;28;20652;-43
2022/10/15 03:14:54;;;;;;;62.55;38.40;;;;;;;12.12;100.00;100454.13;4986562;28;20291;-40
2022/10/15 03:17:19;;;;;;;61.05;37.83;;;;;;;12.11;100.00;100431.78;4989876;28;20217;-41
2022/10/15 03:19:45;;;;;;;60.97;36.75;;;;;;;12.13;100.00;100437.94;4982527;28;20285;-43
2022/10/15 03:22:10;;;;;;;60.55;36.95;;;;;;;12.11;100.00;100436.25;4996249;28;20204;-44
2022/10/15 03:24:48;;;;;;;62.58;37.00;;;;;;;12.14;100.00;100436.13;4995220;28;20275;-43
2022/10/15 03:27:18;;;;;;;64.82;38.03;;;;;;;12.15;100.00;100437.84;4995534;28;20295;-41
2022/10/15 03:29:43;;;;;;;62.10;37.03;;;;;;;12.16;100.00;100435.09;4986620;28;20275;-42
2022/10/15 03:32:10;;;;;;;65.65;38.33;;;;;;;12.14;100.00;100442.34;4995048;28;20236;-40
2022/10/15 03:34:36;;;;;;;64.72;37.00;;;;;;;12.19;100.00;100441.25;4989576;28;20235;-41
2022/10/15 03:37:02;;;;;;;61.47;37.03;;;;;;;12.17;100.00;100430.56;4990516;28;20197;-42
2022/10/15 03:39:28;;;;;;;61.10;36.28;;;;;;;12.18;100.00;100442.19;4995436;28;20671;-40
2022/10/15 03:41:57;;;;;;;60.80;37.08;;;;;;;12.14;100.00;100436.13;5006291;28;20631;-42
2022/10/15 03:44:30;;;;;;;67.82;38.30;;;;;;;12.16;100.00;100453.03;4996024;28;20174;-42
2022/10/15 03:47:03;;;;;;;63.63;36.25;;;;;;;12.15;100.00;100446.75;4992778;28;20227;-41
2022/10/15 03:49:38;;;;;;;68.03;38.33;;;;;;;12.15;100.00;100444.06;4994861;28;20175;-43
2022/10/15 03:52:05;;;;;;;63.67;37.78;;;;;;;12.13;100.00;100456.75;4980147;28;20225;-42
2022/10/15 03:54:31;;;;;;;58.97;36.33;;;;;;;12.15;100.00;100453.94;4975522;28;20177;-40
2022/10/15 03:56:57;;;;;;;64.85;37.53;;;;;;;12.15;100.00;100437.84;4986947;28;20227;-42
2022/10/15 03:59:33;;;;;;;63.17;37.67;;;;;;;12.17;100.00;100446.69;4993533;28;20238;-42
2022/10/15 04:02:01;;;;;;;66.80;37.15;;;;;;;12.12;100.00;100451.44;4977251;28;20650;-44
2022/10/15 04:04:27;;;;;;;60.13;35.30;;;;;;;12.12;100.00;100448.75;4993676;28;20188;-44
2022/10/15 04:06:52;;;;;;;65.80;36.58;;;;;;;12.09;100.00;100448.88;4988128;28;20204;-44
2022/10/15 04:09:18;;;;;;;56.67;34.88;;;;;;;12.08;100.00;100449.84;4988556;28;20189;-43
2022/10/15 04:11:45;;;;;;;61.58;36.28;;;;;;;11.98;100.00;100454.78;4986183;28;20292;-42
2022/10/15 04:14:11;;;;;;;51.60;33.53;;;;;;;11.95;100.00;100449.59;4986090;28;20327;-43
2022/10/15 04:16:36;;;;;;;50.75;31.42;;;;;;;11.97;100.00;100452.22;4987183;28;20647;-42
2022/10/15 04:19:11;;;;;;;59.63;35.22;;;;;;;11.86;100.00;100461.63;4991022;28;20239;-42
2022/10/15 04:21:38;;;;;;;53.92;34.30;;;;;;;11.89;100.00;100458.81;4990007;28;20281;-43
2022/10/15 04:24:04;;;;;;;58.72;35.33;;;;;;;11.88;100.00;100453.53;4988323;28;20205;-41
2022/10/15 04:26:39;;;;;;;64.63;35.60;;;;;;;11.86;100.00;100455.38;4984463;28;20195;-43
2022/10/15 04:29:05;;;;;;;57.33;34.42;;;;;;;11.92;100.00;100456.00;5000450;28;20624;-43
2022/10/15 04:31:30;;;;;;;65.50;36.33;;;;;;;11.89;100.00;100457.94;4980439;28;20295;-40
2022/10/15 04:33:57;;;;;;;54.70;34.40;;;;;;;11.94;100.00;100458.59;4963241;28;20229;-41
2022/10/15 04:36:23;;;;;;;61.22;35.70;;;;;;;11.94;100.00;100466.66;4983610;28;20194;-41
2022/10/15 04:39:09;;;;;;;53.22;34.20;;;;;;;11.95;100.00;100463.00;4987566;28;20184;-42
2022/10/15 04:41:38;;;;;;;59.42;36.08;;;;;;;11.89;100.00;100468.69;5002155;28;20181;-42
2022/10/15 04:44:08;;;;;;;63.67;36.67;;;;;;;11.91;100.00;100466.78;4987725;28;20229;-43
2022/10/15 04:46:35;;;;;;;62.08;35.38;;;;;;;11.90;100.00;100473.97;4994316;28;20168;-40
2022/10/15 04:49:10;;;;;;;54.60;34.92;;;;;;;11.90;100.00;100476.66;4990706;28;20203;-43
2022/10/15 04:51:38;;;;;;;53.03;33.47;;;;;;;11.92;100.00;100471.22;4989987;28;20196;-41
2022/10/15 04:54:11;;;;;;;54.28;34.22;;;;;;;11.89;100.00;100469.53;4993944;28;20197;-42
2022/10/15 04:56:49;;;;;;;48.65;31.02;;;;;;;11.93;100.00;100473.81;4991109;28;20220;-42
2022/10/15 04:59:15;;;;;;;54.33;33.05;;;;;;;11.94;100.00;100474.72;4983761;28;20303;-43
2022/10/15 05:02:00;;;;;;;55.33;33.05;;;;;;;11.87;100.00;100476.81;4997685;28;20607;-42
2022/10/15 05:04:26;;;;;;;50.10;32.10;;;;;;;11.89;100.00;100482.09;4993020;28;20664;-42
2022/10/15 05:06:52;;;;;;;55.45;30.73;;;;;;;11.85;100.00;100492.09;4996181;28;20268;-44
2022/10/15 05:09:18;;;;;;;46.58;31.30;;;;;;;11.85;100.00;100489.44;4990984;28;20532;-42
2022/10/15 05:11:49;;;;;;;47.35;29.17;;;;;;;11.84;100.00;100484.97;5011310;28;20215;-41
2022/10/15 05:14:15;;;;;;;53.28;31.60;;;;;;;11.81;100.00;100487.84;4993602;28;20176;-43
2022/10/15 05:16:40;;;;;;;41.42;28.38;;;;;;;11.87;100.00;100492.00;5011430;28;20545;-44
2022/10/15 05:19:07;;;;;;;43.30;28.25;;;;;;;11.91;100.00;100490.94;5011125;28;20173;-45
2022/10/15 05:21:35;;;;;;;44.67;29.92;;;;;;;11.87;100.00;100490.22;4993558;28;20262;-43
2022/10/15 05:24:04;;;;;;;45.65;30.20;;;;;;;11.85;100.00;100493.91;4993716;28;20220;-41
2022/10/15 05:26:48;;;;;;;51.90;32.05;;;;;;;11.83;100.00;100495.78;4993648;28;20176;-42
2022/10/15 05:29:14;;;;;;;44.45;29.83;;;;;;;11.76;100.00;100495.22;4993620;28;20199;-43
2022/10/15 05:31:40;;;;;;;42.92;28.95;;;;;;;11.75;100.00;100505.09;5010856;28;20161;-54
2022/10/15 05:34:16;;;;;;;43.63;27.13;;;;;;;11.75;100.00;100502.41;4993125;28;20183;-40
2022/10/15 05:37:03;;;;;;;37.88;26.13;;;;;;;11.63;100.00;100504.81;4993240;28;20192;-44
2022/10/15 05:39:31;;;;;;;37.22;25.27;;;;;;;11.64;100.00;100512.78;4992964;28;20187;-42
2022/10/15 05:41:58;;;;;;;37.88;26.35;;;;;;;11.70;100.00;100511.66;4993265;28;20229;-41
2022/10/15 05:44:34;;;;;;;34.53;25.10;;;;;;;11.64;100.00;100506.56;4992896;28;20700;-40
2022/10/15 05:47:00;;;;;;;37.17;25.52;;;;;;;11.64;100.00;100502.06;5010811;28;20255;-44
2022/10/15 05:49:26;;;;;;;35.33;25.15;;;;;;;11.64;100.00;100515.47;4992584;28;20169;-44
2022/10/15 05:52:08;;;;;;;37.78;24.25;;;;;;;11.63;100.00;100504.81;4992171;28;20255;-41
2022/10/15 05:54:59;;;;;;;32.20;23.98;;;;;;;11.68;100.00;100497.44;4991817;28;20181;-41
2022/10/15 05:57:24;;;;;;;43.03;26.15;;;;;;;11.62;100.00;100506.63;5010054;28;20241;-43
2022/10/15 05:59:50;;;;;;;43.92;28.35;;;;;;;11.68;100.00;100509.03;5009932;28;20193;-43
2022/10/15 06:02:15;;;;;;;42.28;28.17;;;;;;;11.70;100.00;100520.56;5009675;28;20192;-40
2022/10/15 06:04:41;;;;;;;45.47;29.08;;;;;;;11.72;100.00;100507.06;5009855;28;20659;-40
2022/10/15 06:07:07;;;;;;;44.03;29.48;;;;;;;11.74;100.00;100508.72;4992262;28;20251;-39
2022/10/15 06:09:33;;;;;;;49.17;31.00;;;;;;;11.68;100.00;100518.91;5009619;28;20211;-41
2022/10/15 06:11:58;;;;;;;43.72;28.42;;;;;;;11.70;100.00;100519.69;5009114;28;20192;-44
2022/10/15 06:14:24;;;;;;;44.83;28.02;;;;;;;11.68;100.00;100522.44;5003351;28;20273;-42
2022/10/15 06:16:49;;;;;;;43.60;28.17;;;;;;;11.74;100.00;100519.47;5000037;28;20224;-43
2022/10/15 06:19:15;;;;;;;52.67;28.92;;;;;;;11.71;100.00;100527.66;5003476;28;20659;-43
2022/10/15 06:21:41;;;;;;;45.80;28.33;;;;;;;11.72;100.00;100520.50;4997665;28;20203;-43
2022/10/15 06:24:07;;;;;;;51.33;30.52;;;;;;;11.70;100.00;100533.13;5001629;28;20212;-45
2022/10/15 06:26:32;;;;;;;54.80;30.77;;;;;;;11.69;100.00;100526.00;4999181;28;20875;-43
2022/10/15 06:28:58;;;;;;;51.67;30.98;;;;;;;11.72;100.00;100521.34;4995097;28;20660;-44
2022/10/15 06:31:24;;;;;;;58.88;31.77;;;;;;;11.75;100.00;100525.69;4998560;28;20201;-44
2022/10/15 06:33:49;;;;;;;49.10;30.98;;;;;;;11.80;100.00;100523.66;4973695;28;20664;-44
2022/10/15 06:36:15;;;;;;;59.65;31.23;;;;;;;11.75;100.00;100523.00;4992655;28;20177;-44
2022/10/15 06:38:42;;;;;;;53.47;29.35;;;;;;;11.78;100.00;100530.91;4982358;28;20533;-45
2022/10/15 06:41:08;;;;;;;58.35;32.40;;;;;;;11.75;100.00;100525.69;4997984;28;20640;-43
2022/10/15 06:43:34;;;;;;;58.10;32.88;;;;;;;11.74;100.00;100526.63;4994791;28;20305;-45
2022/10/15 06:46:01;;;;;;;58.50;32.83;;;;;;;11.73;100.00;100528.44;5001081;28;20185;-45
2022/10/15 06:48:26;;;;;;;56.33;32.67;;;;;;;11.77;100.00;100539.91;4997178;28;20197;-43
2022/10/15 06:50:52;;;;;;;59.50;34.15;;;;;;;11.73;100.00;100531.13;5001139;28;20243;-43
2022/10/15 06:53:17;;;;;;;60.88;34.08;;;;;;;11.74;100.00;100527.53;5000544;28;20776;-46
2022/10/15 06:55:43;;;;;;;62.90;33.92;;;;;;;11.70;100.00;100525.91;4998444;28;20215;-46
2022/10/15 06:58:08;;;;;;;64.22;35.00;;;;;;;11.70;100.00;100530.44;4994610;28;20711;-45
2022/10/15 07:00:34;;;;;;;58.85;33.25;;;;;;;11.75;100.00;100544.50;5001057;28;20210;-46
2022/10/15 07:03:04;;;;;;;64.63;35.97;;;;;;;11.72;100.00;100537.47;4996222;28;20256;-44
2022/10/15 07:05:30;;;;;;;65.45;35.40;;;;;;;11.76;100.00;100538.16;5002426;28;20199;-45
2022/10/15 07:07:56;;;;;;;72.13;36.22;;;;;;;11.84;100.00;100546.72;4999015;28;20193;-45
2022/10/15 07:10:24;;;;;;;72.65;37.15;;;;;;;11.67;100.00;100543.97;5001313;28;20196;-44
2022/10/15 07:12:50;;;;;;;70.28;35.25;;;;;;;11.67;100.00;100543.97;4994852;28;20213;-45
2022/10/15 07:15:16;;;;;;;72.18;36.47;;;;;;;11.67;100.00;100557.41;4993147;28;20276;-46
2022/10/15 07:17:49;;;;;;;77.28;36.13;;;;;;;11.66;100.00;100544.94;4998574;28;20259;-45
2022/10/15 07:20:15;;;;;;;71.65;34.83;;;;;;;11.65;100.00;100540.50;5000896;28;20501;-46
2022/10/15 07:22:41;;;;;;;72.70;34.53;;;;;;;11.60;100.00;100535.34;5000919;28;20205;-45
2022/10/15 07:25:08;;;;;;;77.93;33.97;;;;;;;11.59;100.00;100533.63;4990530;28;20188;-47
2022/10/15 07:27:34;;;;;;;73.65;33.08;;;;;;;11.58;100.00;100541.72;4998987;28;20209;-44
2022/10/15 07:29:59;;;;;;;61.55;31.70;;;;;;;11.65;100.00;100541.34;4992491;28;20181;-45
2022/10/15 07:32:25;;;;;;;68.57;32.03;;;;;;;11.62;100.00;100537.97;4995604;28;20243;-46
2022/10/15 07:34:50;;;;;;;69.25;31.48;;;;;;;11.65;100.00;100541.34;4994332;28;20189;-47
2022/10/15 07:37:16;;;;;;;63.67;31.80;;;;;;;11.61;100.00;100546.94;4999941;28;20251;-45
2022/10/15 07:39:41;;;;;;;68.97;31.70;;;;;;;11.64;100.00;100539.63;5003210;28;20224;-45
2022/10/15 07:42:06;;;;;;;68.82;30.63;;;;;;;11.70;100.00;100546.53;5001653;28;20209;-45
2022/10/15 07:44:32;;;;;;;69.47;32.22;;;;;;;11.70;100.00;100554.59;4998316;28;20236;-42
2022/10/15 07:46:58;;;;;;;63.90;30.20;;;;;;;11.70;100.00;100559.94;5003445;28;20184;-45
2022/10/15 07:49:23;;;;;;;66.93;30.85;;;;;;;11.78;100.00;100563.13;4999252;28;20196;-44
2022/10/15 07:51:48;;;;;;;68.13;32.45;;;;;;;11.75;100.00;100552.53;4996351;28;20387;-44
2022/10/15 07:54:14;;;;;;;65.13;31.13;;;;;;;11.80;100.00;100557.69;4994805;28;20181;-45
2022/10/15 07:56:39;;;;;;;76.35;33.15;;;;;;;11.81;100.00;100560.31;4991305;28;20235;-45
2022/10/15 07:59:07;;;;;;;67.28;32.72;;;;;;;11.81;100.00;100562.13;5000436;28;20230;-43
2022/10/15 08:01:32;;;;;;;75.28;32.50;;;;;;;11.78;100.00;100560.44;4995216;28;20212;-43
2022/10/15 08:03:58;;;;;;;79.68;35.90;;;;;;;11.85;100.00;100567.28;4995175;28;20651;-44
2022/10/15 08:06:23;;;;;;;75.32;34.33;;;;;;;11.92;100.00;100565.19;4993611;28;20219;-44
2022/10/15 08:08:49;;;;;;;75.10;33.85;;;;;;;11.86;100.00;100565.44;5001287;28;20185;-45
2022/10/15 08:11:15;;;;;;;76.95;34.15;;;;;;;11.87;100.00;100557.34;5000902;28;20622;-44
2022/10/15 08:13:42;;;;;;;81.30;36.00;;;;;;;11.89;100.00;100566.19;4996690;28;20383;-44
2022/10/15 08:16:09;;;;;;;79.68;34.67;;;;;;;11.95;100.00;100563.22;4989456;28;20683;-45
2022/10/15 08:18:36;;;;;;;83.93;36.15;;;;;;;11.91;100.00;100553.56;4999223;28;20216;-44
2022/10/15 08:21:02;;;;;;;89.43;34.38;;;;;;;11.95;100.00;100565.91;4994259;28;20552;-43
2022/10/15 08:23:28;;;;;;;78.28;35.65;;;;;;;11.95;100.00;100573.09;4993743;28;20202;-43
2022/10/15 08:25:53;;;;;;;88.82;37.25;;;;;;;11.88;100.00;100568.97;4998952;28;20191;-44
2022/10/15 08:28:19;;;;;;;87.95;37.35;;;;;;;11.85;100.00;100561.91;5001052;28;20667;-42
2022/10/15 08:30:44;;;;;;;89.80;38.17;;;;;;;11.89;100.00;100563.50;5002124;28;20529;-43
2022/10/15 08:33:11;;;;;;;90.90;36.08;;;;;;;11.87;100.00;100557.34;4998587;28;20217;-44
2022/10/15 08:35:40;;;;;;;93.55;38.53;;;;;;;11.85;100.00;100561.91;4997118;28;20185;-45
2022/10/15 08:38:05;;;;;;;89.80;37.70;;;;;;;11.84;100.00;100559.28;4994064;28;20177;-44
2022/10/15 08:40:31;;;;;;;86.15;35.65;;;;;;;11.90;100.00;100565.25;4993725;28;20243;-43
2022/10/15 08:42:57;;;;;;;74.75;34.60;;;;;;;11.98;100.00;100559.50;4998466;28;20241;-42
2022/10/15 08:45:25;;;;;;;78.07;34.88;;;;;;;11.97;100.00;100563.16;4997343;28;20242;-45
2022/10/15 08:48:13;;;;;;;68.43;33.03;;;;;;;12.14;100.00;100565.03;5001651;28;20272;-43
2022/10/15 08:50:58;;;;;;;80.65;34.88;;;;;;;12.07;100.00;100564.44;4987321;28;20258;-43
2022/10/15 08:53:25;;;;;;;69.95;33.75;;;;;;;12.16;100.00;100566.69;4978762;28;20218;-42
2022/10/15 08:55:57;;;;;;;81.00;34.80;;;;;;;12.28;100.00;100564.34;5002104;28;20226;-43
2022/10/15 08:58:35;;;;;;;69.93;32.72;;;;;;;12.18;100.00;100565.72;5001740;28;20248;-43
2022/10/15 09:01:05;;;;;;;79.32;34.05;;;;;;;12.22;100.00;100572.69;4994280;28;20188;-42
2022/10/15 09:03:39;;;;;;;75.90;33.28;;;;;;;12.21;100.00;100571.81;4995874;28;20679;-41
2022/10/15 09:06:11;;;;;;;71.82;33.10;;;;;;;12.15;100.00;100572.13;4996370;28;20227;-42
2022/10/15 09:08:36;;;;;;;74.38;33.67;;;;;;;12.12;100.00;100569.59;4994576;28;20243;-43
2022/10/15 09:11:12;;;;;;;74.47;31.67;;;;;;;12.15;100.00;100577.50;4993622;28;20193;-44
2022/10/15 09:13:40;;;;;;;76.32;33.40;;;;;;;12.11;100.00;100584.84;4993762;28;20569;-42
2022/10/15 09:16:12;;;;;;;80.43;32.47;;;;;;;12.14;100.00;100575.75;4991837;28;20252;-43
2022/10/15 09:18:43;;;;;;;79.80;32.13;;;;;;;12.15;100.00;100583.72;4995581;28;20297;-42
2022/10/15 09:21:10;;;;;;;83.05;32.05;;;;;;;12.10;100.00;100580.41;4991131;28;20238;-45
2022/10/15 09:23:36;;;;;;;76.28;32.15;;;;;;;12.15;100.00;100577.50;4990725;28;20205;-43
2022/10/15 09:26:28;;;;;;;80.20;31.90;;;;;;;12.13;100.00;100582.06;4995394;28;20279;-42
2022/10/15 09:29:13;;;;;;;75.45;31.17;;;;;;;12.16;100.00;100584.63;4987960;28;20726;-43
2022/10/15 09:31:49;;;;;;;75.38;30.10;;;;;;;12.20;100.00;100583.53;4997010;28;20209;-44
2022/10/15 09:34:28;;;;;;;76.05;29.73;;;;;;;12.43;100.00;100594.94;5002920;28;20202;-44
2022/10/15 09:36:57;;;;;;;82.13;31.50;;;;;;;12.35;100.00;100588.16;4991866;28;20195;-43
2022/10/15 09:39:39;;;;;;;75.25;30.95;;;;;;;12.44;100.00;100580.56;4997265;28;20279;-43
2022/10/15 09:42:29;;;;;;;78.25;31.42;;;;;;;12.46;100.00;100575.97;4998931;28;20189;-44
2022/10/15 09:45:00;;;;;;;78.25;31.00;;;;;;;12.49;100.00;100573.16;4999239;28;20185;-43
2022/10/15 09:47:29;;;;;;;73.95;31.42;;;;;;;12.55;100.00;100584.47;4993325;28;20192;-43
2022/10/15 09:49:59;;;;;;;78.38;33.85;;;;;;;12.45;100.00;100574.25;4994439;28;20189;-45
2022/10/15 09:52:42;;;;;;;79.25;33.88;;;;;;;12.44;100.00;100577.84;4997163;28;20227;-44
2022/10/15 09:55:16;;;;;;;83.05;34.65;;;;;;;12.50;100.00;100577.56;5000534;28;20266;-43
2022/10/15 09:57:47;;;;;;;74.90;33.75;;;;;;;12.43;100.00;100576.13;5004211;28;20222;-46
2022/10/15 10:00:15;;;;;;;77.75;32.30;;;;;;;12.55;100.00;100580.88;5007393;28;20193;-44
2022/10/15 10:02:42;;;;;;;76.25;32.72;;;;;;;12.44;100.00;100585.94;4995521;28;20289;-46
2022/10/15 10:05:28;;;;;;;78.05;33.92;;;;;;;12.47;100.00;100581.28;4995128;28;20609;-44
2022/10/15 10:08:28;;;;;;;68.40;32.28;;;;;;;12.53;100.00;100575.59;5004275;28;20188;-45
2022/10/15 10:11:06;;;;;;;69.03;32.30;;;;;;;12.57;100.00;100578.97;4965298;28;20338;-45
2022/10/15 10:13:45;;;;;;;72.15;34.60;;;;;;;12.56;100.00;100569.19;5005685;28;20216;-45
2022/10/15 10:16:12;;;;;;;71.60;33.90;;;;;;;12.65;100.00;100574.09;4991804;28;20255;-43
2022/10/15 10:18:38;;;;;;;73.35;33.33;;;;;;;12.80;100.00;100569.75;5000130;28;20224;-46
2022/10/15 10:21:25;;;;;;;68.00;32.88;;;;;;;12.81;100.00;100566.09;4993850;28;20202;-45
2022/10/15 10:23:51;;;;;;;73.07;33.05;;;;;;;12.85;100.00;100572.19;4987478;28;20209;-47
2022/10/15 10:26:16;;;;;;;76.32;34.40;;;;;;;12.83;100.00;100574.09;4999180;28;20343;-45
2022/10/15 10:28:51;;;;;;;74.28;34.40;;;;;;;12.90;100.00;100568.34;4994616;28;20189;-46
2022/10/15 10:31:17;;;;;;;69.20;33.85;;;;;;;12.96;100.00;100569.81;5003759;28;20199;-46
2022/10/15 10:33:48;;;;;;;73.07;35.60;;;;;;;13.02;100.00;100555.19;4996658;28;20220;-47
2022/10/15 10:36:34;;;;;;;75.15;36.60;;;;;;;13.04;100.00;100567.59;4992125;28;20254;-46
2022/10/15 10:39:04;;;;;;;82.68;37.45;;;;;;;13.06;100.00;100552.25;4993642;28;20186;-46
2022/10/15 10:42:18;;;;;;;74.78;34.83;;;;;;;13.25;100.00;100553.94;5005351;28;20188;-44
2022/10/15 10:44:45;;;;;;;72.32;37.53;;;;;;;13.23;100.00;100554.06;4911521;29;20208;-45
2022/10/15 10:47:20;;;;;;;71.18;36.35;;;;;;;13.34;100.00;100549.00;4990322;28;20201;-46
2022/10/15 10:49:48;;;;;;;64.65;35.13;;;;;;;13.36;100.00;100548.91;5004075;28;20184;-47
2022/10/15 10:52:34;;;;;;;56.88;34.13;;;;;;;13.42;100.00;100535.09;4996421;28;20324;-46
2022/10/15 10:55:18;;;;;;;57.35;34.00;;;;;;;13.50;100.00;100540.94;4999984;28;20693;-44
2022/10/15 10:57:47;;;;;;;55.83;31.33;;;;;;;13.63;100.00;100534.91;5002141;28;20632;-44
2022/10/15 11:00:17;;;;;;;61.25;34.22;;;;;;;13.58;100.00;100544.09;5004937;28;20243;-45
2022/10/15 11:02:47;;;;;;;54.90;34.70;;;;;;;13.53;100.00;100547.97;4997628;28;20283;-47
2022/10/15 11:05:15;;;;;;;54.92;34.58;;;;;;;13.64;100.00;100544.69;4997583;28;20272;-46
2022/10/15 11:07:53;;;;;;;60.45;33.92;;;;;;;13.70;100.00;100525.50;5000830;28;20183;-45
2022/10/15 11:10:26;;;;;;;46.00;30.95;;;;;;;13.75;100.00;100523.41;4997855;28;20604;-45
2022/10/15 11:12:54;;;;;;;48.60;32.92;;;;;;;13.70;100.00;100525.50;4993980;28;20217;-45
2022/10/15 11:15:52;;;;;;;51.10;32.25;;;;;;;13.74;100.00;100527.06;5004095;28;20373;-43
2022/10/15 11:18:24;;;;;;;45.67;30.05;;;;;;;13.74;100.00;100530.63;5013563;28;20180;-43